Current Conditions
Overcast
Conditions



Pressure
1004.06 (mb) - 29.65 (inHG)
Visibility

0.9 (miles) - 1.4 (km)
Temperature
7  °C
Temperature
7  °C
Dewpoint
100  %
 Humidity
Wind Speed
9  mph
8  kts
14  km/h
4.0  m/s
Wind Direction
N
45°
E
90°
135°
S
180°
225°
W
270°
315°
 250°

West South
West
Airport Data
EGGD
Bristol Airport
Metar :EGGD 290550Z AUTO 25008KT 1400 R27/P1500N DZ OVC002/// //////TCU 07/07 Q1004 RERA
Thu 29th February 05:50 am
Raw Metar Info
Raw METAR is the most common format in the world for the transmission of observational weather data. It is highly standardized through the International Civil Aviation Organization (ICAO), which allows it to be understood throughout most of the world.
API Info
Data Provided by
https://www.checkwx.com/weather/EGGD

Aviation Weather providing METAR, TAF, AIRMET, SIGMET and OUTLOOK Weather Reports
© Info
CSS/SVG/PHP scripts were developed by weather34 for use in the weather34 template © 2015-2024

Guide Info provided by Metar-Wikipedia